sensor_id;sensor_type;location;lat;lon;timestamp;pressure;altitude;pressure_sealevel;temperature;humidity
24390;BME280;12510;56.468;-3.004;2023-06-26T00:02:12;100061.41;;;17.39;100.00
24390;BME280;12510;56.468;-3.004;2023-06-26T00:04:38;100043.53;;;17.33;100.00
24390;BME280;12510;56.468;-3.004;2023-06-26T00:07:05;100065.50;;;17.42;100.00
24390;BME280;12510;56.468;-3.004;2023-06-26T00:09:32;100064.66;;;17.35;100.00
24390;BME280;12510;56.468;-3.004;2023-06-26T00:11:58;100076.06;;;17.29;100.00
24390;BME280;12510;56.468;-3.004;2023-06-26T00:14:25;100075.25;;;17.28;100.00
24390;BME280;12510;56.468;-3.004;2023-06-26T00:16:52;100085.66;;;17.23;100.00
24390;BME280;12510;56.468;-3.004;2023-06-26T00:19:19;100082.53;;;17.19;100.00
24390;BME280;12510;56.468;-3.004;2023-06-26T00:21:45;100088.88;;;17.18;100.00
24390;BME280;12510;56.468;-3.004;2023-06-26T00:24:14;100091.13;;;17.15;100.00
24390;BME280;12510;56.468;-3.004;2023-06-26T00:26:41;100101.50;;;17.09;100.00
24390;BME280;12510;56.468;-3.004;2023-06-26T00:29:07;100096.56;;;17.06;100.00
24390;BME280;12510;56.468;-3.004;2023-06-26T00:31:34;100091.38;;;16.98;100.00
24390;BME280;12510;56.468;-3.004;2023-06-26T00:34:01;100100.81;;;17.01;100.00
24390;BME280;12510;56.468;-3.004;2023-06-26T00:36:28;100109.00;;;16.99;100.00
24390;BME280;12510;56.468;-3.004;2023-06-26T00:38:54;100106.91;;;16.95;100.00
24390;BME280;12510;56.468;-3.004;2023-06-26T00:41:21;100094.44;;;16.95;100.00
24390;BME280;12510;56.468;-3.004;2023-06-26T00:43:48;100096.06;;;16.96;100.00
24390;BME280;12510;56.468;-3.004;2023-06-26T00:46:15;100092.22;;;16.99;100.00
24390;BME280;12510;56.468;-3.004;2023-06-26T00:48:43;100085.25;;;16.98;100.00
24390;BME280;12510;56.468;-3.004;2023-06-26T00:51:10;100104.88;;;16.97;100.00
24390;BME280;12510;56.468;-3.004;2023-06-26T00:53:38;100095.06;;;16.97;100.00
24390;BME280;12510;56.468;-3.004;2023-06-26T00:56:05;100094.81;;;16.92;100.00
24390;BME280;12510;56.468;-3.004;2023-06-26T00:58:32;100099.00;;;17.01;100.00
24390;BME280;12510;56.468;-3.004;2023-06-26T01:00:58;100103.28;;;17.02;100.00
24390;BME280;12510;56.468;-3.004;2023-06-26T01:03:27;100108.59;;;17.02;100.00
24390;BME280;12510;56.468;-3.004;2023-06-26T01:05:58;100101.19;;;16.98;100.00
24390;BME280;12510;56.468;-3.004;2023-06-26T01:08:25;100110.00;;;16.98;100.00
24390;BME280;12510;56.468;-3.004;2023-06-26T01:10:53;100115.56;;;17.03;100.00
24390;BME280;12510;56.468;-3.004;2023-06-26T01:13:19;100117.34;;;16.96;100.00
24390;BME280;12510;56.468;-3.004;2023-06-26T01:15:46;100113.75;;;16.89;100.00
24390;BME280;12510;56.468;-3.004;2023-06-26T01:18:13;100110.28;;;16.88;100.00
24390;BME280;12510;56.468;-3.004;2023-06-26T01:20:41;100102.25;;;16.82;100.00
24390;BME280;12510;56.468;-3.004;2023-06-26T01:23:17;100112.03;;;16.96;100.00
24390;BME280;12510;56.468;-3.004;2023-06-26T01:26:19;100110.00;;;16.98;100.00
24390;BME280;12510;56.468;-3.004;2023-06-26T01:28:47;100117.16;;;16.98;100.00
24390;BME280;12510;56.468;-3.004;2023-06-26T01:31:15;100117.16;;;16.98;100.00
24390;BME280;12510;56.468;-3.004;2023-06-26T01:33:41;100129.06;;;17.02;100.00
24390;BME280;12510;56.468;-3.004;2023-06-26T01:36:10;100133.56;;;17.01;100.00
24390;BME280;12510;56.468;-3.004;2023-06-26T01:38:36;100130.56;;;16.53;100.00
24390;BME280;12510;56.468;-3.004;2023-06-26T01:41:04;100138.59;;;16.74;100.00
24390;BME280;12510;56.468;-3.004;2023-06-26T01:46:23;100126.31;;;16.52;100.00
24390;BME280;12510;56.468;-3.004;2023-06-26T01:51:28;100132.47;;;16.37;100.00
24390;BME280;12510;56.468;-3.004;2023-06-26T01:53:57;100129.91;;;16.29;100.00
24390;BME280;12510;56.468;-3.004;2023-06-26T01:56:26;100128.91;;;16.30;100.00
24390;BME280;12510;56.468;-3.004;2023-06-26T01:58:55;100135.03;;;16.31;100.00
24390;BME280;12510;56.468;-3.004;2023-06-26T02:01:22;100147.31;;;16.32;100.00
24390;BME280;12510;56.468;-3.004;2023-06-26T02:03:50;100142.84;;;16.17;100.00
24390;BME280;12510;56.468;-3.004;2023-06-26T02:06:16;100146.69;;;16.15;100.00
24390;BME280;12510;56.468;-3.004;2023-06-26T02:08:43;100149.06;;;16.09;100.00
24390;BME280;12510;56.468;-3.004;2023-06-26T02:11:09;100157.97;;;16.17;100.00
24390;BME280;12510;56.468;-3.004;2023-06-26T02:13:35;100150.66;;;16.04;100.00
24390;BME280;12510;56.468;-3.004;2023-06-26T02:16:02;100155.97;;;16.04;100.00
24390;BME280;12510;56.468;-3.004;2023-06-26T02:18:28;100153.41;;;15.96;100.00
24390;BME280;12510;56.468;-3.004;2023-06-26T02:20:55;100153.84;;;15.99;100.00
24390;BME280;12510;56.468;-3.004;2023-06-26T02:23:21;100166.31;;;15.99;100.00
24390;BME280;12510;56.468;-3.004;2023-06-26T02:25:48;100169.69;;;15.92;100.00
24390;BME280;12510;56.468;-3.004;2023-06-26T02:28:14;100172.25;;;15.86;100.00
24390;BME280;12510;56.468;-3.004;2023-06-26T02:30:43;100170.66;;;15.76;100.00
24390;BME280;12510;56.468;-3.004;2023-06-26T02:33:09;100163.78;;;15.67;100.00
24390;BME280;12510;56.468;-3.004;2023-06-26T02:35:36;100166.88;;;15.71;100.00
24390;BME280;12510;56.468;-3.004;2023-06-26T02:38:02;100174.66;;;15.72;100.00
24390;BME280;12510;56.468;-3.004;2023-06-26T02:40:28;100173.75;;;15.65;100.00
24390;BME280;12510;56.468;-3.004;2023-06-26T02:42:55;100172.94;;;15.65;100.00
24390;BME280;12510;56.468;-3.004;2023-06-26T02:45:23;100177.59;;;15.63;100.00
24390;BME280;12510;56.468;-3.004;2023-06-26T02:47:49;100186.91;;;15.58;100.00
24390;BME280;12510;56.468;-3.004;2023-06-26T02:50:16;100182.88;;;15.48;100.00
24390;BME280;12510;56.468;-3.004;2023-06-26T02:53:04;100175.28;;;15.45;100.00
24390;BME280;12510;56.468;-3.004;2023-06-26T02:55:31;100182.59;;;15.42;100.00
24390;BME280;12510;56.468;-3.004;2023-06-26T02:57:57;100193.56;;;15.39;100.00
24390;BME280;12510;56.468;-3.004;2023-06-26T03:00:24;100188.59;;;15.36;100.00
24390;BME280;12510;56.468;-3.004;2023-06-26T03:02:53;100181.28;;;15.38;100.00
24390;BME280;12510;56.468;-3.004;2023-06-26T03:05:20;100194.09;;;15.35;100.00
24390;BME280;12510;56.468;-3.004;2023-06-26T03:07:47;100192.03;;;15.22;100.00
24390;BME280;12510;56.468;-3.004;2023-06-26T03:10:14;100196.97;;;15.25;100.00
24390;BME280;12510;56.468;-3.004;2023-06-26T03:12:43;100196.97;;;15.25;100.00
24390;BME280;12510;56.468;-3.004;2023-06-26T03:15:10;100200.00;;;15.22;100.00
24390;BME280;12510;56.468;-3.004;2023-06-26T03:17:38;100205.81;;;15.17;100.00
24390;BME280;12510;56.468;-3.004;2023-06-26T03:20:08;100199.41;;;15.12;100.00
24390;BME280;12510;56.468;-3.004;2023-06-26T03:22:55;100202.41;;;15.08;100.00
24390;BME280;12510;56.468;-3.004;2023-06-26T03:25:23;100205.41;;;15.05;100.00
24390;BME280;12510;56.468;-3.004;2023-06-26T03:27:55;100209.06;;;15.04;100.00
24390;BME280;12510;56.468;-3.004;2023-06-26T03:30:21;100214.25;;;14.98;100.00
24390;BME280;12510;56.468;-3.004;2023-06-26T03:32:51;100214.81;;;14.85;100.00
24390;BME280;12510;56.468;-3.004;2023-06-26T03:35:17;100220.78;;;14.87;100.00
24390;BME280;12510;56.468;-3.004;2023-06-26T03:37:44;100225.78;;;14.82;100.00
24390;BME280;12510;56.468;-3.004;2023-06-26T03:40:11;100234.19;;;14.85;100.00
24390;BME280;12510;56.468;-3.004;2023-06-26T03:42:38;100227.72;;;14.88;100.00
24390;BME280;12510;56.468;-3.004;2023-06-26T03:45:05;100232.56;;;14.84;100.00
24390;BME280;12510;56.468;-3.004;2023-06-26T03:47:33;100229.38;;;14.89;100.00
24390;BME280;12510;56.468;-3.004;2023-06-26T03:49:59;100222.09;;;14.91;100.00
24390;BME280;12510;56.468;-3.004;2023-06-26T03:52:26;100224.59;;;14.84;100.00
24390;BME280;12510;56.468;-3.004;2023-06-26T03:54:52;100227.66;;;14.96;100.00
24390;BME280;12510;56.468;-3.004;2023-06-26T03:57:19;100232.94;;;15.04;100.00
24390;BME280;12510;56.468;-3.004;2023-06-26T03:59:47;100232.22;;;15.11;100.00
24390;BME280;12510;56.468;-3.004;2023-06-26T04:02:13;100236.72;;;15.10;100.00
24390;BME280;12510;56.468;-3.004;2023-06-26T04:04:43;100240.19;;;15.11;100.00
24390;BME280;12510;56.468;-3.004;2023-06-26T04:07:09;100242.50;;;15.14;100.00
24390;BME280;12510;56.468;-3.004;2023-06-26T04:09:36;100236.72;;;15.10;100.00
24390;BME280;12510;56.468;-3.004;2023-06-26T04:12:03;100245.31;;;15.12;100.00
24390;BME280;12510;56.468;-3.004;2023-06-26T04:14:30;100247.31;;;15.10;100.00
24390;BME280;12510;56.468;-3.004;2023-06-26T04:16:56;100242.84;;;15.11;100.00
24390;BME280;12510;56.468;-3.004;2023-06-26T04:19:24;100259.91;;;15.08;100.00
24390;BME280;12510;56.468;-3.004;2023-06-26T04:21:50;100255.47;;;15.08;100.00
24390;BME280;12510;56.468;-3.004;2023-06-26T04:24:16;100260.41;;;15.12;100.00
24390;BME280;12510;56.468;-3.004;2023-06-26T04:26:43;100253.56;;;15.17;100.00
24390;BME280;12510;56.468;-3.004;2023-06-26T04:29:11;100260.34;;;15.20;100.00
24390;BME280;12510;56.468;-3.004;2023-06-26T04:31:38;100261.06;;;15.14;100.00
24390;BME280;12510;56.468;-3.004;2023-06-26T04:34:05;100266.63;;;15.19;100.00
24390;BME280;12510;56.468;-3.004;2023-06-26T04:36:31;100265.13;;;15.24;100.00
24390;BME280;12510;56.468;-3.004;2023-06-26T04:38:59;100260.94;;;15.30;100.00
24390;BME280;12510;56.468;-3.004;2023-06-26T04:41:25;100259.59;;;15.34;100.00
24390;BME280;12510;56.468;-3.004;2023-06-26T04:43:52;100258.78;;;15.34;100.00
24390;BME280;12510;56.468;-3.004;2023-06-26T04:46:18;100253.00;;;15.30;100.00
24390;BME280;12510;56.468;-3.004;2023-06-26T04:48:45;100249.66;;;15.28;100.00
24390;BME280;12510;56.468;-3.004;2023-06-26T04:51:11;100252.81;;;15.32;100.00
24390;BME280;12510;56.468;-3.004;2023-06-26T04:53:38;100258.53;;;15.44;100.00
24390;BME280;12510;56.468;-3.004;2023-06-26T04:56:04;100252.22;;;15.45;100.00
24390;BME280;12510;56.468;-3.004;2023-06-26T04:58:30;100253.44;;;15.57;100.00
24390;BME280;12510;56.468;-3.004;2023-06-26T05:00:57;100263.34;;;15.63;100.00
24390;BME280;12510;56.468;-3.004;2023-06-26T05:03:24;100264.28;;;15.70;100.00
24390;BME280;12510;56.468;-3.004;2023-06-26T05:05:51;100252.94;;;15.76;100.00
24390;BME280;12510;56.468;-3.004;2023-06-26T05:08:23;100264.53;;;15.84;100.00
24390;BME280;12510;56.468;-3.004;2023-06-26T05:10:50;100277.88;;;15.75;100.00
24390;BME280;12510;56.468;-3.004;2023-06-26T05:13:16;100273.13;;;15.86;100.00
24390;BME280;12510;56.468;-3.004;2023-06-26T05:15:46;100272.34;;;16.15;100.00
24390;BME280;12510;56.468;-3.004;2023-06-26T05:18:12;100284.69;;;15.70;100.00
24390;BME280;12510;56.468;-3.004;2023-06-26T05:20:39;100285.22;;;15.88;100.00
24390;BME280;12510;56.468;-3.004;2023-06-26T05:23:06;100287.59;;;16.21;100.00
24390;BME280;12510;56.468;-3.004;2023-06-26T05:25:33;100291.34;;;16.27;100.00
24390;BME280;12510;56.468;-3.004;2023-06-26T05:28:02;100296.31;;;16.30;100.00
24390;BME280;12510;56.468;-3.004;2023-06-26T05:30:31;100303.25;;;16.31;100.00
24390;BME280;12510;56.468;-3.004;2023-06-26T05:33:01;100298.69;;;16.25;100.00
24390;BME280;12510;56.468;-3.004;2023-06-26T05:35:30;100302.25;;;16.32;100.00
24390;BME280;12510;56.468;-3.004;2023-06-26T05:37:58;100308.47;;;16.24;100.00
24390;BME280;12510;56.468;-3.004;2023-06-26T05:40:25;100312.38;;;16.14;100.00
24390;BME280;12510;56.468;-3.004;2023-06-26T05:42:52;100314.06;;;16.45;100.00
24390;BME280;12510;56.468;-3.004;2023-06-26T05:45:18;100322.97;;;16.82;100.00
24390;BME280;12510;56.468;-3.004;2023-06-26T05:47:45;100316.28;;;16.56;100.00
24390;BME280;12510;56.468;-3.004;2023-06-26T05:50:13;100320.22;;;16.60;100.00
24390;BME280;12510;56.468;-3.004;2023-06-26T05:52:39;100326.34;;;16.46;100.00
24390;BME280;12510;56.468;-3.004;2023-06-26T05:55:06;100322.50;;;16.63;100.00
24390;BME280;12510;56.468;-3.004;2023-06-26T05:57:35;100318.31;;;16.84;100.00
24390;BME280;12510;56.468;-3.004;2023-06-26T06:00:03;100322.13;;;16.66;100.00
24390;BME280;12510;56.468;-3.004;2023-06-26T06:02:40;100321.97;;;16.83;100.00
24390;BME280;12510;56.468;-3.004;2023-06-26T06:05:08;100329.09;;;16.67;100.00
24390;BME280;12510;56.468;-3.004;2023-06-26T06:07:35;100321.59;;;16.86;100.00
24390;BME280;12510;56.468;-3.004;2023-06-26T06:10:03;100324.91;;;16.88;100.00
24390;BME280;12510;56.468;-3.004;2023-06-26T06:12:30;100315.81;;;16.67;100.00
24390;BME280;12510;56.468;-3.004;2023-06-26T06:14:56;100322.69;;;16.76;100.00
24390;BME280;12510;56.468;-3.004;2023-06-26T06:17:23;100327.38;;;16.74;100.00
24390;BME280;12510;56.468;-3.004;2023-06-26T06:19:49;100321.19;;;16.89;100.00
24390;BME280;12510;56.468;-3.004;2023-06-26T06:22:16;100312.97;;;16.84;100.00
24390;BME280;12510;56.468;-3.004;2023-06-26T06:24:45;100314.09;;;16.74;100.00
24390;BME280;12510;56.468;-3.004;2023-06-26T06:27:11;100319.84;;;17.08;100.00
24390;BME280;12510;56.468;-3.004;2023-06-26T06:29:38;100323.25;;;18.03;100.00
24390;BME280;12510;56.468;-3.004;2023-06-26T06:32:05;100325.75;;;19.23;100.00
24390;BME280;12510;56.468;-3.004;2023-06-26T06:34:31;100330.84;;;20.07;100.00
24390;BME280;12510;56.468;-3.004;2023-06-26T06:36:57;100327.88;;;20.75;100.00
24390;BME280;12510;56.468;-3.004;2023-06-26T06:39:24;100324.69;;;21.37;100.00
24390;BME280;12510;56.468;-3.004;2023-06-26T06:41:50;100322.69;;;22.15;100.00
24390;BME280;12510;56.468;-3.004;2023-06-26T06:44:17;100313.69;;;22.72;100.00
24390;BME280;12510;56.468;-3.004;2023-06-26T06:46:43;100307.97;;;23.59;100.00
24390;BME280;12510;56.468;-3.004;2023-06-26T06:49:10;100303.31;;;23.24;100.00
24390;BME280;12510;56.468;-3.004;2023-06-26T06:51:36;100312.19;;;23.67;100.00
24390;BME280;12510;56.468;-3.004;2023-06-26T06:54:03;100312.91;;;23.20;100.00
24390;BME280;12510;56.468;-3.004;2023-06-26T06:56:29;100330.16;;;22.38;100.00
24390;BME280;12510;56.468;-3.004;2023-06-26T06:58:56;100319.69;;;23.35;100.00
24390;BME280;12510;56.468;-3.004;2023-06-26T07:01:22;100315.84;;;22.82;100.00
24390;BME280;12510;56.468;-3.004;2023-06-26T07:03:49;100329.53;;;22.36;100.00
24390;BME280;12510;56.468;-3.004;2023-06-26T07:06:15;100334.16;;;23.03;100.00
24390;BME280;12510;56.468;-3.004;2023-06-26T07:08:41;100310.41;;;23.49;100.00
24390;BME280;12510;56.468;-3.004;2023-06-26T07:11:08;100322.88;;;23.98;100.00
24390;BME280;12510;56.468;-3.004;2023-06-26T07:13:34;100296.84;;;23.98;100.00
24390;BME280;12510;56.468;-3.004;2023-06-26T07:16:01;100307.13;;;24.01;100.00
24390;BME280;12510;56.468;-3.004;2023-06-26T07:18:27;100323.75;;;23.68;100.00
24390;BME280;12510;56.468;-3.004;2023-06-26T07:20:54;100314.97;;;24.91;100.00
24390;BME280;12510;56.468;-3.004;2023-06-26T07:23:21;100318.72;;;25.48;100.00
24390;BME280;12510;56.468;-3.004;2023-06-26T07:25:47;100317.88;;;24.49;100.00
24390;BME280;12510;56.468;-3.004;2023-06-26T07:28:13;100319.03;;;23.93;100.00
24390;BME280;12510;56.468;-3.004;2023-06-26T07:30:40;100325.47;;;24.40;100.00
24390;BME280;12510;56.468;-3.004;2023-06-26T07:33:06;100340.25;;;23.71;100.00
24390;BME280;12510;56.468;-3.004;2023-06-26T07:35:33;100332.63;;;24.34;100.00
24390;BME280;12510;56.468;-3.004;2023-06-26T07:37:59;100307.66;;;25.03;100.00
24390;BME280;12510;56.468;-3.004;2023-06-26T07:40:26;100313.78;;;25.73;100.00
24390;BME280;12510;56.468;-3.004;2023-06-26T07:42:53;100309.25;;;25.62;100.00
24390;BME280;12510;56.468;-3.004;2023-06-26T07:45:20;100306.56;;;25.96;100.00
24390;BME280;12510;56.468;-3.004;2023-06-26T07:47:46;100295.94;;;26.06;96.39
24390;BME280;12510;56.468;-3.004;2023-06-26T07:50:13;100291.88;;;26.87;97.33
24390;BME280;12510;56.468;-3.004;2023-06-26T07:52:45;100286.31;;;27.86;90.93
24390;BME280;12510;56.468;-3.004;2023-06-26T07:55:11;100290.41;;;25.79;92.00
24390;BME280;12510;56.468;-3.004;2023-06-26T07:57:38;100296.13;;;27.33;93.24
24390;BME280;12510;56.468;-3.004;2023-06-26T08:00:05;100294.97;;;27.29;92.47
24390;BME280;12510;56.468;-3.004;2023-06-26T08:02:40;100295.25;;;27.00;91.69
24390;BME280;12510;56.468;-3.004;2023-06-26T08:05:07;100318.34;;;25.27;97.68
24390;BME280;12510;56.468;-3.004;2023-06-26T08:07:33;100308.88;;;25.53;94.83
24390;BME280;12510;56.468;-3.004;2023-06-26T08:10:00;100305.22;;;25.99;92.77
24390;BME280;12510;56.468;-3.004;2023-06-26T08:12:26;100296.47;;;26.25;87.50
24390;BME280;12510;56.468;-3.004;2023-06-26T08:14:52;100290.78;;;26.44;84.17
24390;BME280;12510;56.468;-3.004;2023-06-26T08:17:19;100302.63;;;25.53;87.26
24390;BME280;12510;56.468;-3.004;2023-06-26T08:19:45;100309.84;;;26.37;85.90
24390;BME280;12510;56.468;-3.004;2023-06-26T08:22:12;100317.19;;;27.03;89.76
24390;BME280;12510;56.468;-3.004;2023-06-26T08:24:39;100314.97;;;25.20;87.37
24390;BME280;12510;56.468;-3.004;2023-06-26T08:27:05;100311.44;;;26.33;85.76
24390;BME280;12510;56.468;-3.004;2023-06-26T08:29:33;100313.50;;;26.26;83.93
24390;BME280;12510;56.468;-3.004;2023-06-26T08:32:00;100300.53;;;26.45;78.87
24390;BME280;12510;56.468;-3.004;2023-06-26T08:34:28;100308.91;;;24.84;85.06
24390;BME280;12510;56.468;-3.004;2023-06-26T08:36:54;100314.44;;;25.06;89.91
24390;BME280;12510;56.468;-3.004;2023-06-26T08:39:21;100313.44;;;25.24;82.72
24390;BME280;12510;56.468;-3.004;2023-06-26T08:41:47;100313.72;;;25.39;83.45
24390;BME280;12510;56.468;-3.004;2023-06-26T08:44:14;100308.78;;;25.99;83.52
24390;BME280;12510;56.468;-3.004;2023-06-26T08:46:40;100308.13;;;25.75;82.43
24390;BME280;12510;56.468;-3.004;2023-06-26T08:52:16;100316.13;;;25.70;83.35
24390;BME280;12510;56.468;-3.004;2023-06-26T08:54:46;100316.81;;;26.33;82.82
24390;BME280;12510;56.468;-3.004;2023-06-26T08:57:17;100325.16;;;26.09;82.82
24390;BME280;12510;56.468;-3.004;2023-06-26T08:59:44;100329.88;;;26.19;84.82
24390;BME280;12510;56.468;-3.004;2023-06-26T09:02:12;100328.88;;;25.91;86.99
24390;BME280;12510;56.468;-3.004;2023-06-26T09:04:39;100316.81;;;26.33;84.02
24390;BME280;12510;56.468;-3.004;2023-06-26T09:07:06;100326.91;;;25.70;88.26
24390;BME280;12510;56.468;-3.004;2023-06-26T09:09:33;100309.75;;;26.27;82.84
24390;BME280;12510;56.468;-3.004;2023-06-26T09:12:01;100319.31;;;26.01;83.88
24390;BME280;12510;56.468;-3.004;2023-06-26T09:14:29;100358.22;;;27.50;99.51
24390;BME280;12510;56.468;-3.004;2023-06-26T09:16:55;100317.00;;;26.66;81.36
24390;BME280;12510;56.468;-3.004;2023-06-26T09:19:22;100317.94;;;26.99;79.31
24390;BME280;12510;56.468;-3.004;2023-06-26T09:21:49;100315.63;;;25.90;78.10
24390;BME280;12510;56.468;-3.004;2023-06-26T09:24:17;100319.25;;;28.16;77.99
24390;BME280;12510;56.468;-3.004;2023-06-26T09:26:44;100326.16;;;25.74;81.70
24390;BME280;12510;56.468;-3.004;2023-06-26T09:29:10;100313.34;;;25.99;77.09
24390;BME280;12510;56.468;-3.004;2023-06-26T09:31:37;100335.19;;;27.20;80.96
24390;BME280;12510;56.468;-3.004;2023-06-26T09:34:04;100324.53;;;26.64;74.65
24390;BME280;12510;56.468;-3.004;2023-06-26T09:36:31;100351.00;;;26.67;87.02
24390;BME280;12510;56.468;-3.004;2023-06-26T09:39:03;100308.69;;;27.44;73.00
24390;BME280;12510;56.468;-3.004;2023-06-26T09:41:30;100313.34;;;25.99;73.07
24390;BME280;12510;56.468;-3.004;2023-06-26T09:44:01;100316.66;;;26.79;68.32
24390;BME280;12510;56.468;-3.004;2023-06-26T09:46:30;100306.59;;;26.74;64.69
24390;BME280;12510;56.468;-3.004;2023-06-26T09:49:08;100331.13;;;24.91;75.06
24390;BME280;12510;56.468;-3.004;2023-06-26T09:51:36;100322.31;;;26.21;74.18
24390;BME280;12510;56.468;-3.004;2023-06-26T09:54:04;100341.06;;;27.12;80.24
24390;BME280;12510;56.468;-3.004;2023-06-26T09:56:32;100308.34;;;27.68;67.47
24390;BME280;12510;56.468;-3.004;2023-06-26T09:59:04;100310.69;;;27.04;65.96
24390;BME280;12510;56.468;-3.004;2023-06-26T10:01:31;100320.28;;;26.51;65.73
24390;BME280;12510;56.468;-3.004;2023-06-26T10:03:58;100334.72;;;25.37;72.97
24390;BME280;12510;56.468;-3.004;2023-06-26T10:06:33;100330.03;;;26.13;69.23
24390;BME280;12510;56.468;-3.004;2023-06-26T10:09:00;100333.84;;;25.49;66.34
24390;BME280;12510;56.468;-3.004;2023-06-26T10:11:37;100322.88;;;26.40;63.79
24390;BME280;12510;56.468;-3.004;2023-06-26T10:14:04;100330.19;;;25.89;69.52
24390;BME280;12510;56.468;-3.004;2023-06-26T10:16:34;100349.63;;;25.74;75.56
24390;BME280;12510;56.468;-3.004;2023-06-26T10:19:06;100345.34;;;26.68;73.56
24390;BME280;12510;56.468;-3.004;2023-06-26T10:21:34;100341.94;;;27.45;71.46
24390;BME280;12510;56.468;-3.004;2023-06-26T10:24:02;100349.00;;;26.57;72.15
24390;BME280;12510;56.468;-3.004;2023-06-26T10:26:30;100372.19;;;25.68;79.94
24390;BME280;12510;56.468;-3.004;2023-06-26T10:28:59;100372.03;;;26.42;82.14
24390;BME280;12510;56.468;-3.004;2023-06-26T10:31:28;100370.41;;;25.90;80.52
24390;BME280;12510;56.468;-3.004;2023-06-26T10:33:55;100387.44;;;26.81;85.51
24390;BME280;12510;56.468;-3.004;2023-06-26T10:36:30;100380.09;;;25.17;83.51
24390;BME280;12510;56.468;-3.004;2023-06-26T10:39:06;100385.78;;;25.90;80.30
24390;BME280;12510;56.468;-3.004;2023-06-26T10:41:54;100383.13;;;25.61;84.00
24390;BME280;12510;56.468;-3.004;2023-06-26T10:44:21;100370.34;;;26.75;78.46
24390;BME280;12510;56.468;-3.004;2023-06-26T10:49:14;100375.38;;;25.65;80.07
24390;BME280;12510;56.468;-3.004;2023-06-26T10:51:46;100370.66;;;25.89;80.81
24390;BME280;12510;56.468;-3.004;2023-06-26T10:54:16;100379.72;;;25.83;83.57
24390;BME280;12510;56.468;-3.004;2023-06-26T10:56:54;100381.53;;;24.67;86.41
24390;BME280;12510;56.468;-3.004;2023-06-26T10:59:27;100378.38;;;25.10;83.39
24390;BME280;12510;56.468;-3.004;2023-06-26T11:02:04;100403.66;;;24.69;90.37
24390;BME280;12510;56.468;-3.004;2023-06-26T11:04:57;100438.22;;;24.18;100.00
24390;BME280;12510;56.468;-3.004;2023-06-26T11:07:26;100434.72;;;23.75;100.00
24390;BME280;12510;56.468;-3.004;2023-06-26T11:09:54;100428.19;;;23.83;100.00
24390;BME280;12510;56.468;-3.004;2023-06-26T11:15:15;100412.72;;;24.20;94.71
24390;BME280;12510;56.468;-3.004;2023-06-26T11:17:43;100400.59;;;24.89;92.81
24390;BME280;12510;56.468;-3.004;2023-06-26T11:20:14;100411.28;;;25.13;88.71
24390;BME280;12510;56.468;-3.004;2023-06-26T11:22:42;100427.22;;;24.07;95.15
24390;BME280;12510;56.468;-3.004;2023-06-26T11:25:10;100414.84;;;24.54;93.15
24390;BME280;12510;56.468;-3.004;2023-06-26T11:27:40;100413.91;;;24.48;94.29
24390;BME280;12510;56.468;-3.004;2023-06-26T11:30:11;100412.72;;;25.03;90.27
24390;BME280;12510;56.468;-3.004;2023-06-26T11:32:48;100407.72;;;24.36;84.98
24390;BME280;12510;56.468;-3.004;2023-06-26T11:35:24;100410.88;;;24.33;85.61
24390;BME280;12510;56.468;-3.004;2023-06-26T11:37:58;100432.06;;;24.29;96.85
24390;BME280;12510;56.468;-3.004;2023-06-26T11:40:33;100433.56;;;24.60;93.87
24390;BME280;12510;56.468;-3.004;2023-06-26T11:43:01;100428.06;;;24.20;95.18
24390;BME280;12510;56.468;-3.004;2023-06-26T11:45:30;100420.03;;;24.55;88.32
24390;BME280;12510;56.468;-3.004;2023-06-26T11:47:58;100442.84;;;23.68;97.74
24390;BME280;12510;56.468;-3.004;2023-06-26T11:50:25;100431.47;;;23.54;96.43
24390;BME280;12510;56.468;-3.004;2023-06-26T11:52:56;100431.41;;;23.42;95.38
24390;BME280;12510;56.468;-3.004;2023-06-26T11:55:24;100458.53;;;22.35;100.00
24390;BME280;12510;56.468;-3.004;2023-06-26T11:57:53;100451.63;;;22.89;100.00
24390;BME280;12510;56.468;-3.004;2023-06-26T12:00:20;100470.03;;;22.86;100.00
24390;BME280;12510;56.468;-3.004;2023-06-26T12:02:48;100457.41;;;23.30;100.00
24390;BME280;12510;56.468;-3.004;2023-06-26T12:05:16;100461.66;;;23.19;100.00
24390;BME280;12510;56.468;-3.004;2023-06-26T12:07:45;100469.47;;;23.02;100.00
24390;BME280;12510;56.468;-3.004;2023-06-26T12:10:14;100474.81;;;22.84;100.00
24390;BME280;12510;56.468;-3.004;2023-06-26T12:12:41;100476.00;;;22.44;100.00
24390;BME280;12510;56.468;-3.004;2023-06-26T12:15:10;100476.59;;;23.15;100.00
24390;BME280;12510;56.468;-3.004;2023-06-26T12:17:38;100467.38;;;22.86;100.00
24390;BME280;12510;56.468;-3.004;2023-06-26T12:20:22;100475.25;;;23.43;100.00
24390;BME280;12510;56.468;-3.004;2023-06-26T12:22:48;100479.19;;;24.20;100.00
24390;BME280;12510;56.468;-3.004;2023-06-26T12:25:15;100473.88;;;24.01;100.00
24390;BME280;12510;56.468;-3.004;2023-06-26T12:27:44;100459.13;;;24.70;100.00
24390;BME280;12510;56.468;-3.004;2023-06-26T12:30:12;100462.06;;;24.80;100.00
24390;BME280;12510;56.468;-3.004;2023-06-26T12:32:39;100457.63;;;24.08;100.00
24390;BME280;12510;56.468;-3.004;2023-06-26T12:35:05;100461.16;;;24.20;100.00
24390;BME280;12510;56.468;-3.004;2023-06-26T12:37:36;100441.69;;;24.72;99.60
24390;BME280;12510;56.468;-3.004;2023-06-26T12:40:17;100439.44;;;24.46;99.34
24390;BME280;12510;56.468;-3.004;2023-06-26T12:42:45;100445.63;;;24.58;97.10
24390;BME280;12510;56.468;-3.004;2023-06-26T12:45:13;100442.19;;;23.73;97.87
24390;BME280;12510;56.468;-3.004;2023-06-26T12:47:39;100454.34;;;23.75;100.00
24390;BME280;12510;56.468;-3.004;2023-06-26T12:50:08;100472.34;;;23.26;100.00
24390;BME280;12510;56.468;-3.004;2023-06-26T12:52:34;100470.31;;;23.89;100.00